sensor_id;sensor_type;location;lat;lon;timestamp;P1;durP1;ratioP1;P2;durP2;ratioP2
823;SDS011;373;49.342;8.146;2024-01-15T00:01:23;20.20;;;11.40;;
823;SDS011;373;49.342;8.146;2024-01-15T00:04:08;24.92;;;13.52;;
823;SDS011;373;49.342;8.146;2024-01-15T00:06:55;22.58;;;12.52;;
823;SDS011;373;49.342;8.146;2024-01-15T00:09:32;16.55;;;8.75;;
823;SDS011;373;49.342;8.146;2024-01-15T00:12:07;25.67;;;14.80;;
823;SDS011;373;49.342;8.146;2024-01-15T00:14:55;21.90;;;12.75;;
823;SDS011;373;49.342;8.146;2024-01-15T00:17:24;21.90;;;11.45;;
823;SDS011;373;49.342;8.146;2024-01-15T00:19:53;25.55;;;13.02;;
823;SDS011;373;49.342;8.146;2024-01-15T00:22:32;28.13;;;14.35;;
823;SDS011;373;49.342;8.146;2024-01-15T00:25:16;26.35;;;13.38;;
823;SDS011;373;49.342;8.146;2024-01-15T00:27:54;23.40;;;12.93;;
823;SDS011;373;49.342;8.146;2024-01-15T00:33:36;22.95;;;12.52;;
823;SDS011;373;49.342;8.146;2024-01-15T00:36:23;21.60;;;12.57;;
823;SDS011;373;49.342;8.146;2024-01-15T00:39:21;18.08;;;10.35;;
823;SDS011;373;49.342;8.146;2024-01-15T00:42:07;25.17;;;12.57;;
823;SDS011;373;49.342;8.146;2024-01-15T00:44:40;20.55;;;11.90;;
823;SDS011;373;49.342;8.146;2024-01-15T00:47:11;22.02;;;11.90;;
823;SDS011;373;49.342;8.146;2024-01-15T00:49:43;24.02;;;12.75;;
823;SDS011;373;49.342;8.146;2024-01-15T00:52:19;21.55;;;12.32;;
823;SDS011;373;49.342;8.146;2024-01-15T00:54:55;23.35;;;12.43;;
823;SDS011;373;49.342;8.146;2024-01-15T00:57:27;23.55;;;12.20;;
823;SDS011;373;49.342;8.146;2024-01-15T01:00:02;23.80;;;11.90;;
823;SDS011;373;49.342;8.146;2024-01-15T01:02:43;24.15;;;11.38;;
823;SDS011;373;49.342;8.146;2024-01-15T01:05:23;18.92;;;10.15;;
823;SDS011;373;49.342;8.146;2024-01-15T01:08:18;23.38;;;12.63;;
823;SDS011;373;49.342;8.146;2024-01-15T01:10:45;20.48;;;11.70;;
823;SDS011;373;49.342;8.146;2024-01-15T01:13:16;21.48;;;11.35;;
823;SDS011;373;49.342;8.146;2024-01-15T01:18:57;22.33;;;10.90;;
823;SDS011;373;49.342;8.146;2024-01-15T01:21:45;21.33;;;11.73;;
823;SDS011;373;49.342;8.146;2024-01-15T01:24:16;19.17;;;10.20;;
823;SDS011;373;49.342;8.146;2024-01-15T01:26:58;21.98;;;11.68;;
823;SDS011;373;49.342;8.146;2024-01-15T01:29:30;13.43;;;8.43;;
823;SDS011;373;49.342;8.146;2024-01-15T01:32:24;18.38;;;9.45;;
823;SDS011;373;49.342;8.146;2024-01-15T01:35:08;17.60;;;10.25;;
823;SDS011;373;49.342;8.146;2024-01-15T01:38:11;20.63;;;10.52;;
823;SDS011;373;49.342;8.146;2024-01-15T01:40:48;18.30;;;10.50;;
823;SDS011;373;49.342;8.146;2024-01-15T01:43:25;19.27;;;10.23;;
823;SDS011;373;49.342;8.146;2024-01-15T01:46:01;17.38;;;11.10;;
823;SDS011;373;49.342;8.146;2024-01-15T01:48:55;20.08;;;11.25;;
823;SDS011;373;49.342;8.146;2024-01-15T01:52:04;16.67;;;10.15;;
823;SDS011;373;49.342;8.146;2024-01-15T01:54:35;17.55;;;10.15;;
823;SDS011;373;49.342;8.146;2024-01-15T01:57:03;19.48;;;9.70;;
823;SDS011;373;49.342;8.146;2024-01-15T01:59:35;18.83;;;10.40;;
823;SDS011;373;49.342;8.146;2024-01-15T02:02:19;21.33;;;11.45;;
823;SDS011;373;49.342;8.146;2024-01-15T02:04:53;16.98;;;9.88;;
823;SDS011;373;49.342;8.146;2024-01-15T02:07:40;19.00;;;9.45;;
823;SDS011;373;49.342;8.146;2024-01-15T02:10:46;13.57;;;7.72;;
823;SDS011;373;49.342;8.146;2024-01-15T02:13:25;16.95;;;9.10;;
823;SDS011;373;49.342;8.146;2024-01-15T02:16:02;17.27;;;10.90;;
823;SDS011;373;49.342;8.146;2024-01-15T02:18:41;17.60;;;9.85;;
823;SDS011;373;49.342;8.146;2024-01-15T02:21:22;19.92;;;10.35;;
823;SDS011;373;49.342;8.146;2024-01-15T02:23:58;14.77;;;8.38;;
823;SDS011;373;49.342;8.146;2024-01-15T02:26:37;20.10;;;8.82;;
823;SDS011;373;49.342;8.146;2024-01-15T02:29:16;16.88;;;10.85;;
823;SDS011;373;49.342;8.146;2024-01-15T02:32:09;22.27;;;11.55;;
823;SDS011;373;49.342;8.146;2024-01-15T02:34:49;17.48;;;10.65;;
823;SDS011;373;49.342;8.146;2024-01-15T02:37:28;13.57;;;7.50;;
823;SDS011;373;49.342;8.146;2024-01-15T02:43:04;18.80;;;9.65;;
823;SDS011;373;49.342;8.146;2024-01-15T02:45:55;18.75;;;9.52;;
823;SDS011;373;49.342;8.146;2024-01-15T02:48:30;19.63;;;11.05;;
823;SDS011;373;49.342;8.146;2024-01-15T02:51:13;15.48;;;9.52;;
823;SDS011;373;49.342;8.146;2024-01-15T02:54:01;18.90;;;10.35;;
823;SDS011;373;49.342;8.146;2024-01-15T02:59:53;17.83;;;11.23;;
823;SDS011;373;49.342;8.146;2024-01-15T03:02:40;17.48;;;9.98;;
823;SDS011;373;49.342;8.146;2024-01-15T03:05:31;19.00;;;10.48;;
823;SDS011;373;49.342;8.146;2024-01-15T03:08:01;21.02;;;11.07;;
823;SDS011;373;49.342;8.146;2024-01-15T03:10:40;18.67;;;11.35;;
823;SDS011;373;49.342;8.146;2024-01-15T03:13:17;19.55;;;11.10;;
823;SDS011;373;49.342;8.146;2024-01-15T03:15:47;19.67;;;10.43;;
823;SDS011;373;49.342;8.146;2024-01-15T03:18:14;20.73;;;12.40;;
823;SDS011;373;49.342;8.146;2024-01-15T03:20:41;19.40;;;12.00;;
823;SDS011;373;49.342;8.146;2024-01-15T03:23:21;20.55;;;11.32;;
823;SDS011;373;49.342;8.146;2024-01-15T03:26:00;18.60;;;10.10;;
823;SDS011;373;49.342;8.146;2024-01-15T03:28:29;17.05;;;10.07;;
823;SDS011;373;49.342;8.146;2024-01-15T03:31:15;17.50;;;9.88;;
823;SDS011;373;49.342;8.146;2024-01-15T03:34:16;15.15;;;10.00;;
823;SDS011;373;49.342;8.146;2024-01-15T03:36:50;13.98;;;8.10;;
823;SDS011;373;49.342;8.146;2024-01-15T03:39:23;14.35;;;8.43;;
823;SDS011;373;49.342;8.146;2024-01-15T03:42:24;12.55;;;7.75;;
823;SDS011;373;49.342;8.146;2024-01-15T03:44:54;16.13;;;8.93;;
823;SDS011;373;49.342;8.146;2024-01-15T03:50:51;17.67;;;9.82;;
823;SDS011;373;49.342;8.146;2024-01-15T03:53:23;15.50;;;8.95;;
823;SDS011;373;49.342;8.146;2024-01-15T03:56:03;15.65;;;8.98;;
823;SDS011;373;49.342;8.146;2024-01-15T03:58:39;15.07;;;9.18;;
823;SDS011;373;49.342;8.146;2024-01-15T04:01:49;16.23;;;9.00;;
823;SDS011;373;49.342;8.146;2024-01-15T04:04:40;15.30;;;9.45;;
823;SDS011;373;49.342;8.146;2024-01-15T04:07:24;15.02;;;9.00;;
823;SDS011;373;49.342;8.146;2024-01-15T04:10:30;12.35;;;8.40;;
823;SDS011;373;49.342;8.146;2024-01-15T04:13:24;17.30;;;9.30;;
823;SDS011;373;49.342;8.146;2024-01-15T04:16:34;16.50;;;9.77;;
823;SDS011;373;49.342;8.146;2024-01-15T04:22:29;16.13;;;8.82;;
823;SDS011;373;49.342;8.146;2024-01-15T04:25:14;16.77;;;9.57;;
823;SDS011;373;49.342;8.146;2024-01-15T04:28:04;15.75;;;9.13;;
823;SDS011;373;49.342;8.146;2024-01-15T04:31:09;15.57;;;8.85;;
823;SDS011;373;49.342;8.146;2024-01-15T04:34:10;13.93;;;7.80;;
823;SDS011;373;49.342;8.146;2024-01-15T04:37:01;18.02;;;10.02;;
823;SDS011;373;49.342;8.146;2024-01-15T04:39:42;14.77;;;8.13;;
823;SDS011;373;49.342;8.146;2024-01-15T04:42:27;17.25;;;10.20;;
823;SDS011;373;49.342;8.146;2024-01-15T04:44:56;11.95;;;7.57;;
823;SDS011;373;49.342;8.146;2024-01-15T04:47:47;12.75;;;7.85;;
823;SDS011;373;49.342;8.146;2024-01-15T04:50:19;13.93;;;8.55;;
823;SDS011;373;49.342;8.146;2024-01-15T05:02:56;12.85;;;8.85;;
823;SDS011;373;49.342;8.146;2024-01-15T05:06:33;14.30;;;8.25;;
823;SDS011;373;49.342;8.146;2024-01-15T05:09:25;12.00;;;8.68;;
823;SDS011;373;49.342;8.146;2024-01-15T05:11:57;10.73;;;7.18;;
823;SDS011;373;49.342;8.146;2024-01-15T05:14:27;14.57;;;7.90;;
823;SDS011;373;49.342;8.146;2024-01-15T05:17:12;11.73;;;7.38;;
823;SDS011;373;49.342;8.146;2024-01-15T05:19:45;15.10;;;7.78;;
823;SDS011;373;49.342;8.146;2024-01-15T05:22:18;15.98;;;9.00;;
823;SDS011;373;49.342;8.146;2024-01-15T05:25:01;12.95;;;7.97;;
823;SDS011;373;49.342;8.146;2024-01-15T05:27:44;15.30;;;9.07;;
823;SDS011;373;49.342;8.146;2024-01-15T05:30:35;14.43;;;8.32;;
823;SDS011;373;49.342;8.146;2024-01-15T05:33:11;18.23;;;10.07;;
823;SDS011;373;49.342;8.146;2024-01-15T05:35:43;16.33;;;10.25;;
823;SDS011;373;49.342;8.146;2024-01-15T05:38:17;16.20;;;10.70;;
823;SDS011;373;49.342;8.146;2024-01-15T05:41:09;18.65;;;10.65;;
823;SDS011;373;49.342;8.146;2024-01-15T05:43:44;17.10;;;10.85;;
823;SDS011;373;49.342;8.146;2024-01-15T05:46:21;16.92;;;10.60;;
823;SDS011;373;49.342;8.146;2024-01-15T05:48:59;17.33;;;11.13;;
823;SDS011;373;49.342;8.146;2024-01-15T05:52:06;17.85;;;10.35;;
823;SDS011;373;49.342;8.146;2024-01-15T05:55:44;15.70;;;10.82;;
823;SDS011;373;49.342;8.146;2024-01-15T06:03:07;18.92;;;11.23;;
823;SDS011;373;49.342;8.146;2024-01-15T06:06:42;15.18;;;10.48;;
823;SDS011;373;49.342;8.146;2024-01-15T06:09:30;17.65;;;10.65;;
823;SDS011;373;49.342;8.146;2024-01-15T06:15:59;18.48;;;11.48;;
823;SDS011;373;49.342;8.146;2024-01-15T06:18:59;17.40;;;11.23;;
823;SDS011;373;49.342;8.146;2024-01-15T06:21:59;16.58;;;10.65;;
823;SDS011;373;49.342;8.146;2024-01-15T06:24:38;18.50;;;9.77;;
823;SDS011;373;49.342;8.146;2024-01-15T06:27:08;15.75;;;11.63;;
823;SDS011;373;49.342;8.146;2024-01-15T06:29:48;14.25;;;9.73;;
823;SDS011;373;49.342;8.146;2024-01-15T06:32:34;16.48;;;10.20;;
823;SDS011;373;49.342;8.146;2024-01-15T06:35:18;19.60;;;10.52;;
823;SDS011;373;49.342;8.146;2024-01-15T06:37:46;16.50;;;10.98;;
823;SDS011;373;49.342;8.146;2024-01-15T06:40:15;13.98;;;10.50;;
823;SDS011;373;49.342;8.146;2024-01-15T06:42:44;13.93;;;10.60;;
823;SDS011;373;49.342;8.146;2024-01-15T06:45:20;15.10;;;10.20;;
823;SDS011;373;49.342;8.146;2024-01-15T06:47:58;16.77;;;10.95;;
823;SDS011;373;49.342;8.146;2024-01-15T06:50:27;16.33;;;10.05;;
823;SDS011;373;49.342;8.146;2024-01-15T06:53:12;16.65;;;9.52;;
823;SDS011;373;49.342;8.146;2024-01-15T06:55:49;17.65;;;10.82;;
823;SDS011;373;49.342;8.146;2024-01-15T06:58:16;16.50;;;10.38;;
823;SDS011;373;49.342;8.146;2024-01-15T07:00:44;14.23;;;10.32;;
823;SDS011;373;49.342;8.146;2024-01-15T07:03:11;15.38;;;10.00;;
823;SDS011;373;49.342;8.146;2024-01-15T07:05:48;14.20;;;10.50;;
823;SDS011;373;49.342;8.146;2024-01-15T07:08:28;15.43;;;10.27;;
823;SDS011;373;49.342;8.146;2024-01-15T07:15:03;13.88;;;9.18;;
823;SDS011;373;49.342;8.146;2024-01-15T07:25:22;16.42;;;10.95;;
823;SDS011;373;49.342;8.146;2024-01-15T07:28:11;14.30;;;9.98;;
823;SDS011;373;49.342;8.146;2024-01-15T07:30:49;16.48;;;10.23;;
823;SDS011;373;49.342;8.146;2024-01-15T07:33:28;15.63;;;10.20;;
823;SDS011;373;49.342;8.146;2024-01-15T07:36:57;13.10;;;7.97;;
823;SDS011;373;49.342;8.146;2024-01-15T07:39:51;14.55;;;10.15;;
823;SDS011;373;49.342;8.146;2024-01-15T07:42:30;12.68;;;9.02;;
823;SDS011;373;49.342;8.146;2024-01-15T07:45:25;14.57;;;9.45;;
823;SDS011;373;49.342;8.146;2024-01-15T07:48:16;12.27;;;8.75;;
823;SDS011;373;49.342;8.146;2024-01-15T07:51:01;11.02;;;8.98;;
823;SDS011;373;49.342;8.146;2024-01-15T07:53:53;14.93;;;9.75;;
823;SDS011;373;49.342;8.146;2024-01-15T07:56:55;13.07;;;8.65;;
823;SDS011;373;49.342;8.146;2024-01-15T08:36:36;13.93;;;10.13;;
823;SDS011;373;49.342;8.146;2024-01-15T08:39:03;14.43;;;8.63;;
823;SDS011;373;49.342;8.146;2024-01-15T08:41:31;12.55;;;9.38;;
823;SDS011;373;49.342;8.146;2024-01-15T08:44:01;13.05;;;9.23;;
823;SDS011;373;49.342;8.146;2024-01-15T08:46:29;11.90;;;8.60;;
823;SDS011;373;49.342;8.146;2024-01-15T08:48:56;13.35;;;9.52;;
823;SDS011;373;49.342;8.146;2024-01-15T08:51:23;11.55;;;8.82;;
823;SDS011;373;49.342;8.146;2024-01-15T08:53:52;12.90;;;8.73;;
823;SDS011;373;49.342;8.146;2024-01-15T08:56:19;13.55;;;9.30;;
823;SDS011;373;49.342;8.146;2024-01-15T08:58:46;13.48;;;9.13;;
823;SDS011;373;49.342;8.146;2024-01-15T09:01:14;13.20;;;9.35;;
823;SDS011;373;49.342;8.146;2024-01-15T09:03:41;9.75;;;7.22;;
823;SDS011;373;49.342;8.146;2024-01-15T09:06:08;11.20;;;7.95;;
823;SDS011;373;49.342;8.146;2024-01-15T09:08:35;11.43;;;8.25;;
823;SDS011;373;49.342;8.146;2024-01-15T09:11:04;11.52;;;8.52;;
823;SDS011;373;49.342;8.146;2024-01-15T09:13:31;12.32;;;8.52;;
823;SDS011;373;49.342;8.146;2024-01-15T09:15:58;11.30;;;8.02;;
823;SDS011;373;49.342;8.146;2024-01-15T09:18:26;8.82;;;7.13;;
823;SDS011;373;49.342;8.146;2024-01-15T09:20:53;11.77;;;7.75;;
823;SDS011;373;49.342;8.146;2024-01-15T09:23:20;10.48;;;8.02;;
823;SDS011;373;49.342;8.146;2024-01-15T09:25:47;13.18;;;8.70;;
823;SDS011;373;49.342;8.146;2024-01-15T09:28:16;9.40;;;7.28;;
823;SDS011;373;49.342;8.146;2024-01-15T09:30:44;10.00;;;7.82;;
823;SDS011;373;49.342;8.146;2024-01-15T09:33:11;11.90;;;8.35;;
823;SDS011;373;49.342;8.146;2024-01-15T09:35:38;9.27;;;7.07;;
823;SDS011;373;49.342;8.146;2024-01-15T09:38:05;10.65;;;7.28;;
823;SDS011;373;49.342;8.146;2024-01-15T09:40:32;9.32;;;6.35;;
823;SDS011;373;49.342;8.146;2024-01-15T09:43:00;11.45;;;7.75;;
823;SDS011;373;49.342;8.146;2024-01-15T09:45:30;10.35;;;7.00;;
823;SDS011;373;49.342;8.146;2024-01-15T09:47:57;9.38;;;6.75;;
823;SDS011;373;49.342;8.146;2024-01-15T09:50:24;9.85;;;7.50;;
823;SDS011;373;49.342;8.146;2024-01-15T09:52:52;7.35;;;6.53;;
823;SDS011;373;49.342;8.146;2024-01-15T09:55:22;11.35;;;6.97;;
823;SDS011;373;49.342;8.146;2024-01-15T09:57:49;9.07;;;6.72;;
823;SDS011;373;49.342;8.146;2024-01-15T10:00:17;8.38;;;6.45;;
823;SDS011;373;49.342;8.146;2024-01-15T10:02:46;8.30;;;6.28;;
823;SDS011;373;49.342;8.146;2024-01-15T10:05:14;8.75;;;6.60;;
823;SDS011;373;49.342;8.146;2024-01-15T10:07:42;8.32;;;6.15;;
823;SDS011;373;49.342;8.146;2024-01-15T10:10:10;7.80;;;6.18;;
823;SDS011;373;49.342;8.146;2024-01-15T10:12:38;8.77;;;5.88;;
823;SDS011;373;49.342;8.146;2024-01-15T10:15:06;7.18;;;5.72;;
823;SDS011;373;49.342;8.146;2024-01-15T10:17:36;9.85;;;6.10;;
823;SDS011;373;49.342;8.146;2024-01-15T10:20:08;7.00;;;5.72;;
823;SDS011;373;49.342;8.146;2024-01-15T10:22:39;8.13;;;5.88;;
823;SDS011;373;49.342;8.146;2024-01-15T10:25:09;8.43;;;6.00;;
823;SDS011;373;49.342;8.146;2024-01-15T10:27:37;7.32;;;5.70;;
823;SDS011;373;49.342;8.146;2024-01-15T10:30:05;7.93;;;5.97;;
823;SDS011;373;49.342;8.146;2024-01-15T10:32:33;9.00;;;6.60;;
823;SDS011;373;49.342;8.146;2024-01-15T10:35:00;7.43;;;5.13;;
823;SDS011;373;49.342;8.146;2024-01-15T10:37:29;7.57;;;5.68;;
823;SDS011;373;49.342;8.146;2024-01-15T10:40:00;6.45;;;5.53;;
823;SDS011;373;49.342;8.146;2024-01-15T10:42:28;6.60;;;5.10;;
823;SDS011;373;49.342;8.146;2024-01-15T10:44:56;6.22;;;5.35;;
823;SDS011;373;49.342;8.146;2024-01-15T10:47:23;6.93;;;5.40;;
823;SDS011;373;49.342;8.146;2024-01-15T10:49:51;6.93;;;5.18;;
823;SDS011;373;49.342;8.146;2024-01-15T10:52:18;7.68;;;5.63;;
823;SDS011;373;49.342;8.146;2024-01-15T10:54:47;6.15;;;4.85;;
823;SDS011;373;49.342;8.146;2024-01-15T10:57:15;8.55;;;6.13;;
823;SDS011;373;49.342;8.146;2024-01-15T10:59:43;8.77;;;5.75;;
823;SDS011;373;49.342;8.146;2024-01-15T11:02:11;7.57;;;5.13;;
823;SDS011;373;49.342;8.146;2024-01-15T11:04:39;7.60;;;5.45;;
823;SDS011;373;49.342;8.146;2024-01-15T11:07:06;6.10;;;5.22;;
823;SDS011;373;49.342;8.146;2024-01-15T11:09:34;5.97;;;4.88;;
823;SDS011;373;49.342;8.146;2024-01-15T11:12:11;7.53;;;5.97;;
823;SDS011;373;49.342;8.146;2024-01-15T11:14:39;7.50;;;5.85;;
823;SDS011;373;49.342;8.146;2024-01-15T11:17:09;7.40;;;5.15;;
823;SDS011;373;49.342;8.146;2024-01-15T11:19:37;7.85;;;5.72;;
823;SDS011;373;49.342;8.146;2024-01-15T11:22:07;6.88;;;5.80;;
823;SDS011;373;49.342;8.146;2024-01-15T11:24:35;9.15;;;6.95;;
823;SDS011;373;49.342;8.146;2024-01-15T11:27:03;8.68;;;6.22;;
823;SDS011;373;49.342;8.146;2024-01-15T11:29:33;9.00;;;6.15;;
823;SDS011;373;49.342;8.146;2024-01-15T11:32:02;6.72;;;5.47;;
823;SDS011;373;49.342;8.146;2024-01-15T11:34:49;6.00;;;5.43;;
823;SDS011;373;49.342;8.146;2024-01-15T11:37:18;6.57;;;5.88;;
823;SDS011;373;49.342;8.146;2024-01-15T11:39:45;6.22;;;4.82;;
823;SDS011;373;49.342;8.146;2024-01-15T11:42:13;7.20;;;5.63;;
823;SDS011;373;49.342;8.146;2024-01-15T11:44:42;7.03;;;6.00;;
823;SDS011;373;49.342;8.146;2024-01-15T11:47:10;7.35;;;5.80;;
823;SDS011;373;49.342;8.146;2024-01-15T11:49:51;8.30;;;6.57;;
823;SDS011;373;49.342;8.146;2024-01-15T11:52:33;7.35;;;5.95;;
823;SDS011;373;49.342;8.146;2024-01-15T11:55:03;6.35;;;5.40;;
823;SDS011;373;49.342;8.146;2024-01-15T11:57:46;7.20;;;6.20;;
823;SDS011;373;49.342;8.146;2024-01-15T12:00:18;8.65;;;6.47;;
823;SDS011;373;49.342;8.146;2024-01-15T12:02:46;7.53;;;6.15;;
823;SDS011;373;49.342;8.146;2024-01-15T12:05:15;7.35;;;6.07;;
823;SDS011;373;49.342;8.146;2024-01-15T12:07:44;8.48;;;6.38;;
823;SDS011;373;49.342;8.146;2024-01-15T12:10:13;8.07;;;6.55;;
823;SDS011;373;49.342;8.146;2024-01-15T12:12:49;7.70;;;6.13;;
823;SDS011;373;49.342;8.146;2024-01-15T12:15:25;6.88;;;5.78;;
823;SDS011;373;49.342;8.146;2024-01-15T12:17:54;8.07;;;6.70;;
823;SDS011;373;49.342;8.146;2024-01-15T12:20:23;7.80;;;6.05;;
823;SDS011;373;49.342;8.146;2024-01-15T12:22:50;10.77;;;7.10;;
823;SDS011;373;49.342;8.146;2024-01-15T12:25:17;7.07;;;6.03;;
823;SDS011;373;49.342;8.146;2024-01-15T12:27:45;7.43;;;6.07;;
823;SDS011;373;49.342;8.146;2024-01-15T12:30:13;8.55;;;6.43;;
823;SDS011;373;49.342;8.146;2024-01-15T12:32:42;8.38;;;6.10;;
823;SDS011;373;49.342;8.146;2024-01-15T12:35:09;10.35;;;7.47;;
823;SDS011;373;49.342;8.146;2024-01-15T12:37:37;7.30;;;5.55;;
823;SDS011;373;49.342;8.146;2024-01-15T12:40:06;8.63;;;6.72;;
823;SDS011;373;49.342;8.146;2024-01-15T12:42:35;7.25;;;6.10;;
823;SDS011;373;49.342;8.146;2024-01-15T12:45:02;8.05;;;6.50;;
823;SDS011;373;49.342;8.146;2024-01-15T12:47:32;7.00;;;6.00;;
823;SDS011;373;49.342;8.146;2024-01-15T12:50:00;9.15;;;6.85;;
823;SDS011;373;49.342;8.146;2024-01-15T12:52:28;8.10;;;6.75;;
823;SDS011;373;49.342;8.146;2024-01-15T12:54:56;9.20;;;7.28;;
823;SDS011;373;49.342;8.146;2024-01-15T12:57:23;8.52;;;6.93;;
823;SDS011;373;49.342;8.146;2024-01-15T12:59:50;6.97;;;5.80;;
823;SDS011;373;49.342;8.146;2024-01-15T13:02:18;8.35;;;6.82;;
823;SDS011;373;49.342;8.146;2024-01-15T13:04:45;7.65;;;6.18;;
823;SDS011;373;49.342;8.146;2024-01-15T13:07:14;9.10;;;6.82;;
823;SDS011;373;49.342;8.146;2024-01-15T13:09:41;6.88;;;6.18;;
823;SDS011;373;49.342;8.146;2024-01-15T13:12:08;9.20;;;6.35;;
823;SDS011;373;49.342;8.146;2024-01-15T13:14:37;6.75;;;6.00;;
823;SDS011;373;49.342;8.146;2024-01-15T13:17:04;7.60;;;5.28;;
823;SDS011;373;49.342;8.146;2024-01-15T13:19:32;9.35;;;6.22;;
823;SDS011;373;49.342;8.146;2024-01-15T13:21:59;6.43;;;5.82;;
823;SDS011;373;49.342;8.146;2024-01-15T13:24:28;7.30;;;6.45;;
823;SDS011;373;49.342;8.146;2024-01-15T13:26:55;8.48;;;6.85;;
823;SDS011;373;49.342;8.146;2024-01-15T13:29:22;7.93;;;6.30;;
823;SDS011;373;49.342;8.146;2024-01-15T13:31:49;8.30;;;6.70;;
823;SDS011;373;49.342;8.146;2024-01-15T13:34:17;7.90;;;6.30;;
823;SDS011;373;49.342;8.146;2024-01-15T13:36:44;7.40;;;5.53;;
823;SDS011;373;49.342;8.146;2024-01-15T13:39:11;7.22;;;5.97;;
823;SDS011;373;49.342;8.146;2024-01-15T13:41:40;6.97;;;6.03;;
823;SDS011;373;49.342;8.146;2024-01-15T13:44:09;9.63;;;6.07;;
823;SDS011;373;49.342;8.146;2024-01-15T13:46:36;7.38;;;6.07;;
823;SDS011;373;49.342;8.146;2024-01-15T13:49:03;7.03;;;5.25;;
823;SDS011;373;49.342;8.146;2024-01-15T13:51:31;5.72;;;4.97;;
823;SDS011;373;49.342;8.146;2024-01-15T13:53:58;7.97;;;6.10;;
823;SDS011;373;49.342;8.146;2024-01-15T13:56:26;7.47;;;5.72;;
823;SDS011;373;49.342;8.146;2024-01-15T13:58:58;6.93;;;5.50;;
823;SDS011;373;49.342;8.146;2024-01-15T14:01:25;8.85;;;6.25;;
823;SDS011;373;49.342;8.146;2024-01-15T14:03:53;7.18;;;5.95;;
823;SDS011;373;49.342;8.146;2024-01-15T14:06:21;8.40;;;6.47;;
823;SDS011;373;49.342;8.146;2024-01-15T14:08:49;9.07;;;6.18;;
823;SDS011;373;49.342;8.146;2024-01-15T14:11:17;7.68;;;5.15;;
823;SDS011;373;49.342;8.146;2024-01-15T14:13:44;7.30;;;5.60;;
823;SDS011;373;49.342;8.146;2024-01-15T14:16:12;5.68;;;5.07;;
823;SDS011;373;49.342;8.146;2024-01-15T14:18:39;6.78;;;5.07;;
823;SDS011;373;49.342;8.146;2024-01-15T14:21:07;8.05;;;5.72;;
823;SDS011;373;49.342;8.146;2024-01-15T14:23:35;7.70;;;5.75;;
823;SDS011;373;49.342;8.146;2024-01-15T14:26:04;6.53;;;5.22;;
823;SDS011;373;49.342;8.146;2024-01-15T14:28:31;5.75;;;5.15;;
823;SDS011;373;49.342;8.146;2024-01-15T14:30:58;8.65;;;5.47;;
823;SDS011;373;49.342;8.146;2024-01-15T14:33:27;8.60;;;6.15;;
823;SDS011;373;49.342;8.146;2024-01-15T14:35:54;6.32;;;5.30;;
823;SDS011;373;49.342;8.146;2024-01-15T14:38:21;6.30;;;5.30;;
823;SDS011;373;49.342;8.146;2024-01-15T14:40:48;6.43;;;4.97;;
823;SDS011;373;49.342;8.146;2024-01-15T14:43:16;7.13;;;5.55;;
823;SDS011;373;49.342;8.146;2024-01-15T14:45:44;6.07;;;4.90;;
823;SDS011;373;49.342;8.146;2024-01-15T14:48:12;6.72;;;4.68;;
823;SDS011;373;49.342;8.146;2024-01-15T14:50:43;6.35;;;5.03;;
823;SDS011;373;49.342;8.146;2024-01-15T14:53:11;6.72;;;4.60;;
823;SDS011;373;49.342;8.146;2024-01-15T14:55:38;5.88;;;5.10;;
823;SDS011;373;49.342;8.146;2024-01-15T14:58:06;5.82;;;5.20;;
823;SDS011;373;49.342;8.146;2024-01-15T15:00:33;6.95;;;5.50;;
823;SDS011;373;49.342;8.146;2024-01-15T15:03:04;7.60;;;5.43;;
823;SDS011;373;49.342;8.146;2024-01-15T15:05:31;7.82;;;5.05;;
823;SDS011;373;49.342;8.146;2024-01-15T15:08:07;6.05;;;5.15;;
823;SDS011;373;49.342;8.146;2024-01-15T15:10:38;5.38;;;4.57;;
823;SDS011;373;49.342;8.146;2024-01-15T15:13:09;6.75;;;5.00;;
823;SDS011;373;49.342;8.146;2024-01-15T15:15:43;6.82;;;5.28;;
823;SDS011;373;49.342;8.146;2024-01-15T15:18:14;7.57;;;5.22;;
823;SDS011;373;49.342;8.146;2024-01-15T15:20:41;7.70;;;4.85;;
823;SDS011;373;49.342;8.146;2024-01-15T15:23:10;7.85;;;4.75;;
823;SDS011;373;49.342;8.146;2024-01-15T15:25:37;8.43;;;4.63;;
823;SDS011;373;49.342;8.146;2024-01-15T15:28:07;7.28;;;5.55;;
823;SDS011;373;49.342;8.146;2024-01-15T15:30:35;9.13;;;4.85;;
823;SDS011;373;49.342;8.146;2024-01-15T15:33:02;7.45;;;5.03;;
823;SDS011;373;49.342;8.146;2024-01-15T15:35:30;7.07;;;4.90;;
823;SDS011;373;49.342;8.146;2024-01-15T15:37:57;7.35;;;4.97;;
823;SDS011;373;49.342;8.146;2024-01-15T15:40:26;8.23;;;5.45;;
823;SDS011;373;49.342;8.146;2024-01-15T15:42:53;8.88;;;6.63;;
823;SDS011;373;49.342;8.146;2024-01-15T15:45:21;9.15;;;5.30;;
823;SDS011;373;49.342;8.146;2024-01-15T15:47:50;7.63;;;5.32;;
823;SDS011;373;49.342;8.146;2024-01-15T15:50:17;8.70;;;5.53;;
823;SDS011;373;49.342;8.146;2024-01-15T15:52:44;7.57;;;5.65;;
823;SDS011;373;49.342;8.146;2024-01-15T15:55:11;7.40;;;5.20;;
823;SDS011;373;49.342;8.146;2024-01-15T15:57:40;7.22;;;5.60;;
823;SDS011;373;49.342;8.146;2024-01-15T16:00:08;7.07;;;5.13;;
823;SDS011;373;49.342;8.146;2024-01-15T16:02:40;12.68;;;6.72;;
823;SDS011;373;49.342;8.146;2024-01-15T16:05:07;7.50;;;5.82;;
823;SDS011;373;49.342;8.146;2024-01-15T16:07:35;8.52;;;5.78;;
823;SDS011;373;49.342;8.146;2024-01-15T16:10:03;9.15;;;6.25;;
823;SDS011;373;49.342;8.146;2024-01-15T16:12:31;6.88;;;4.75;;
823;SDS011;373;49.342;8.146;2024-01-15T16:15:00;8.88;;;6.05;;
823;SDS011;373;49.342;8.146;2024-01-15T16:17:28;8.48;;;5.53;;
823;SDS011;373;49.342;8.146;2024-01-15T16:19:56;7.75;;;5.38;;
823;SDS011;373;49.342;8.146;2024-01-15T16:22:23;7.53;;;5.45;;
823;SDS011;373;49.342;8.146;2024-01-15T16:24:51;6.57;;;5.00;;
823;SDS011;373;49.342;8.146;2024-01-15T16:27:18;6.63;;;5.18;;
823;SDS011;373;49.342;8.146;2024-01-15T16:29:45;5.55;;;4.88;;
823;SDS011;373;49.342;8.146;2024-01-15T16:32:14;7.63;;;5.00;;
823;SDS011;373;49.342;8.146;2024-01-15T16:34:41;7.30;;;4.38;;
823;SDS011;373;49.342;8.146;2024-01-15T16:37:08;9.32;;;5.28;;
823;SDS011;373;49.342;8.146;2024-01-15T16:39:36;8.32;;;7.43;;
823;SDS011;373;49.342;8.146;2024-01-15T16:42:03;10.75;;;7.97;;
823;SDS011;373;49.342;8.146;2024-01-15T16:44:30;7.25;;;4.63;;
823;SDS011;373;49.342;8.146;2024-01-15T16:46:58;6.97;;;4.25;;
823;SDS011;373;49.342;8.146;2024-01-15T16:49:27;5.05;;;3.90;;
823;SDS011;373;49.342;8.146;2024-01-15T16:51:55;4.97;;;3.97;;
823;SDS011;373;49.342;8.146;2024-01-15T16:54:22;6.88;;;3.83;;
823;SDS011;373;49.342;8.146;2024-01-15T16:56:49;8.93;;;5.20;;
823;SDS011;373;49.342;8.146;2024-01-15T16:59:16;8.45;;;4.90;;
823;SDS011;373;49.342;8.146;2024-01-15T17:01:43;7.80;;;5.35;;
823;SDS011;373;49.342;8.146;2024-01-15T17:04:11;6.50;;;4.57;;
823;SDS011;373;49.342;8.146;2024-01-15T17:06:40;7.93;;;4.97;;
823;SDS011;373;49.342;8.146;2024-01-15T17:09:07;5.50;;;4.88;;
823;SDS011;373;49.342;8.146;2024-01-15T17:11:34;7.53;;;5.05;;
823;SDS011;373;49.342;8.146;2024-01-15T17:14:01;5.90;;;4.78;;
823;SDS011;373;49.342;8.146;2024-01-15T17:16:29;5.63;;;4.20;;
823;SDS011;373;49.342;8.146;2024-01-15T17:18:57;5.20;;;3.72;;
823;SDS011;373;49.342;8.146;2024-01-15T17:21:24;6.93;;;4.93;;
823;SDS011;373;49.342;8.146;2024-01-15T17:23:52;6.97;;;4.18;;
823;SDS011;373;49.342;8.146;2024-01-15T17:26:20;5.60;;;3.67;;
823;SDS011;373;49.342;8.146;2024-01-15T17:28:47;5.13;;;3.55;;
823;SDS011;373;49.342;8.146;2024-01-15T17:31:14;6.75;;;4.07;;
823;SDS011;373;49.342;8.146;2024-01-15T17:33:41;5.25;;;3.17;;
823;SDS011;373;49.342;8.146;2024-01-15T17:36:08;5.55;;;3.25;;
823;SDS011;373;49.342;8.146;2024-01-15T17:38:35;4.75;;;3.50;;
823;SDS011;373;49.342;8.146;2024-01-15T17:41:04;6.03;;;4.00;;
823;SDS011;373;49.342;8.146;2024-01-15T17:43:32;5.10;;;3.65;;
823;SDS011;373;49.342;8.146;2024-01-15T17:46:01;6.65;;;4.28;;